Map

Track Data

SID SEASON NUMBER BASIN SUBBASIN NAME ISO_TIME NATURE LAT LON WMO_WIND WMO_PRES WMO_AGENCY TRACK_TYPE DIST2LAND LANDFALL IFLAG USA_AGENCY USA_ATCF_ID USA_LAT USA_LON USA_RECORD USA_STATUS USA_WIND USA_PRES USA_SSHS USA_R34_NE USA_R34_SE USA_R34_SW USA_R34_NW USA_R50_NE USA_R50_SE USA_R50_SW USA_R50_NW USA_R64_NE USA_R64_SE USA_R64_SW USA_R64_NW USA_POCI USA_ROCI USA_RMW USA_EYE TOKYO_LAT TOKYO_LON TOKYO_GRADE TOKYO_WIND TOKYO_PRES TOKYO_R50_DIR TOKYO_R50_LONG TOKYO_R50_SHORT TOKYO_R30_DIR TOKYO_R30_LONG TOKYO_R30_SHORT TOKYO_LAND CMA_LAT CMA_LON CMA_CAT CMA_WIND CMA_PRES HKO_LAT HKO_LON HKO_CAT HKO_WIND HKO_PRES NEWDELHI_LAT NEWDELHI_LON NEWDELHI_GRADE NEWDELHI_WIND NEWDELHI_PRES NEWDELHI_CI NEWDELHI_DP NEWDELHI_POCI REUNION_LAT REUNION_LON REUNION_TYPE REUNION_WIND REUNION_PRES REUNION_TNUM REUNION_CI REUNION_RMW REUNION_R34_NE REUNION_R34_SE REUNION_R34_SW REUNION_R34_NW REUNION_R50_NE REUNION_R50_SE REUNION_R50_SW REUNION_R50_NW REUNION_R64_NE REUNION_R64_SE REUNION_R64_SW REUNION_R64_NW BOM_LAT BOM_LON BOM_TYPE BOM_WIND BOM_PRES BOM_TNUM BOM_CI BOM_RMW BOM_R34_NE BOM_R34_SE BOM_R34_SW BOM_R34_NW BOM_R50_NE BOM_R50_SE BOM_R50_SW BOM_R50_NW BOM_R64_NE BOM_R64_SE BOM_R64_SW BOM_R64_NW BOM_ROCI BOM_POCI BOM_EYE BOM_POS_METHOD BOM_PRES_METHOD NADI_LAT NADI_LON NADI_CAT NADI_WIND NADI_PRES WELLINGTON_LAT WELLINGTON_LON WELLINGTON_WIND WELLINGTON_PRES DS824_LAT DS824_LON DS824_STAGE DS824_WIND DS824_PRES TD9636_LAT TD9636_LON TD9636_STAGE TD9636_WIND TD9636_PRES TD9635_LAT TD9635_LON TD9635_WIND TD9635_PRES TD9635_ROCI NEUMANN_LAT NEUMANN_LON NEUMANN_CLASS NEUMANN_WIND NEUMANN_PRES MLC_LAT MLC_LON MLC_CLASS MLC_WIND MLC_PRES USA_GUST BOM_GUST BOM_GUST_PER REUNION_GUST REUNION_GUST_PER USA_SEAHGT USA_SEARAD_NE USA_SEARAD_SE USA_SEARAD_SW USA_SEARAD_NW STORM_SPEED STORM_DIR
1907164N16085 1907 25 NI BB NOT_NAMED 1907-06-13 00:00:00 TS 15.6000 85.2000 main 309 293 _________O____ -1 15.6000 85.2000 TC 34 2 327
1907164N16085 1907 25 NI BB NOT_NAMED 1907-06-13 03:00:00 TS 15.7000 85.1334 main 293 278 _________PO___ -1 15.7500 85.1000 TC 36 15.6000 85.2000 2 3 327
1907164N16085 1907 25 NI BB NOT_NAMED 1907-06-13 06:00:00 TS 15.8381 85.0394 main 278 254 _________OP___ -1 15.9000 85.0000 TC 39 15.7453 85.0985 2 3 327
1907164N16085 1907 25 NI BB NOT_NAMED 1907-06-13 09:00:00 TS 15.9825 84.9418 main 254 246 _________PP___ -1 16.0500 84.9000 TC 42 15.8925 84.9976 2 3 328
1907164N16085 1907 25 NI BB NOT_NAMED 1907-06-13 12:00:00 TS 16.1217 84.8489 main 239 223 _________OP___ -1 16.2000 84.8000 TC 45 16.0435 84.8978 2 3 327
1907164N16085 1907 25 NI BB NOT_NAMED 1907-06-13 15:00:00 TS 16.2750 84.7463 main 215 208 _________PO___ -1 16.3500 84.6925 TC 45 16.2000 84.8000 3 4 329
1907164N16085 1907 25 NI BB NOT_NAMED 1907-06-13 18:00:00 TS 16.4311 84.6528 main 208 185 _________OP___ -1 16.5000 84.6000 TC 45 16.3622 84.7057 3 4 333
1907164N16085 1907 25 NI BB NOT_NAMED 1907-06-13 21:00:00 TS 16.5937 84.5775 main 185 169 _________PP___ -1 16.6650 84.5350 TC 45 16.5225 84.6200 3 3 338
1907164N16085 1907 25 NI BB NOT_NAMED 1907-06-14 00:00:00 TS 16.7358 84.5247 main 169 161 _________OP___ -1 16.8000 84.5000 TC 45 16.6716 84.5494 3 2 342
1907164N16085 1907 25 NI BB NOT_NAMED 1907-06-14 03:00:00 TS 16.8287 84.4962 main 161 154 _________PO___ -1 16.8575 84.4925 TC 45 16.8000 84.5000 3 2 346
1907164N16085 1907 25 NI BB NOT_NAMED 1907-06-14 06:00:00 TS 16.8942 84.4892 main 154 146 _________OP___ -1 16.9000 84.5000 TC 45 16.8884 84.4784 3 1 357
1907164N16085 1907 25 NI BB NOT_NAMED 1907-06-14 09:00:00 TS 16.9712 84.4887 main 146 138 _________PP___ -1 16.9850 84.5000 TC 45 16.9575 84.4774 3 2 5
1907164N16085 1907 25 NI BB NOT_NAMED 1907-06-14 12:00:00 TS 17.0614 84.4939 main 138 128 _________OP___ -1 17.1000 84.5000 TC 45 17.0228 84.4878 3 2 8
1907164N16085 1907 25 NI BB NOT_NAMED 1907-06-14 15:00:00 TS 17.1750 84.5000 main 128 119 _________PO___ -1 17.2500 84.5000 TC 45 17.1000 84.5000 3 2 0
1907164N16085 1907 25 NI BB NOT_NAMED 1907-06-14 18:00:00 TS 17.3053 84.4919 main 119 109 _________OP___ -1 17.4000 84.5000 TC 45 17.2106 84.4838 3 2 354
1907164N16085 1907 25 NI BB NOT_NAMED 1907-06-14 21:00:00 TS 17.4175 84.4813 main 109 99 _________PP___ -1 17.5000 84.4925 TC 45 17.3350 84.4701 3 2 0
1907164N16085 1907 25 NI BB NOT_NAMED 1907-06-15 00:00:00 TS 17.5334 84.4857 main 99 79 _________OP___ -1 17.6000 84.5000 TC 45 17.4668 84.4714 3 3 7
1907164N16085 1907 25 NI BB NOT_NAMED 1907-06-15 03:00:00 TS 17.6750 84.5138 main 79 70 _________PO___ -1 17.7500 84.5275 TC 45 17.6000 84.5000 3 3 18
1907164N16085 1907 25 NI BB NOT_NAMED 1907-06-15 06:00:00 TS 17.8105 84.5816 main 76 69 _________OP___ -1 17.9000 84.6000 TC 45 17.7209 84.5631 3 3 35
1907164N16085 1907 25 NI BB NOT_NAMED 1907-06-15 09:00:00 TS 17.9212 84.6950 main 77 70 _________PP___ -1 18.0000 84.7350 TC 45 17.8425 84.6550 3 3 47
1907164N16085 1907 25 NI BB NOT_NAMED 1907-06-15 12:00:00 TS 18.0339 84.8347 main 76 76 _________OP___ -1 18.1000 84.9000 TC 45 17.9678 84.7694 3 4 47
1907164N16085 1907 25 NI BB NOT_NAMED 1907-06-15 15:00:00 TS 18.1712 84.9750 main 76 76 _________PO___ -1 18.2425 85.0500 TC 45 18.1000 84.9000 3 4 42
1907164N16085 1907 25 NI BB NOT_NAMED 1907-06-15 18:00:00 TS 18.3254 85.1117 main 76 69 _________OP___ -1 18.4000 85.2000 TC 45 18.2509 85.0234 3 4 40
1907164N16085 1907 25 NI BB NOT_NAMED 1907-06-15 21:00:00 TS 18.4824 85.2525 main 81 77 _________PP___ -1 18.5575 85.3425 TC 45 18.4074 85.1625 3 4 43
1907164N16085 1907 25 NI BB NOT_NAMED 1907-06-16 00:00:00 TS 18.6301 85.4102 main 86 80 _________OP___ -1 18.7000 85.5000 TC 45 18.5602 85.3203 3 4 50
1907164N16085 1907 25 NI BB NOT_NAMED 1907-06-16 03:00:00 TS 18.7537 85.5925 main 88 88 _________PO___ -1 18.8075 85.6850 TC 45 18.7000 85.5000 3 4 59
1907164N16085 1907 25 NI BB NOT_NAMED 1907-06-16 06:00:00 TS 18.8511 85.8018 main 88 88 _________OP___ -1 18.9000 85.9000 TC 45 18.8022 85.7036 3 5 66
1907164N16085 1907 25 NI BB NOT_NAMED 1907-06-16 09:00:00 TS 18.9425 86.0352 main 100 94 _________PP___ -1 18.9925 86.1426 TC 45 18.8925 85.9278 3 5 67
1907164N16085 1907 25 NI BB NOT_NAMED 1907-06-16 12:00:00 TS 19.0433 86.2815 main 102 88 _________OP___ -1 19.1000 86.4000 TC 45 18.9866 86.1631 3 5 64
1907164N16085 1907 25 NI BB NOT_NAMED 1907-06-16 15:00:00 TS 19.1675 86.5288 main 88 84 _________PO___ -1 19.2350 86.6575 TC 45 19.1000 86.4000 3 5 58
1907164N16085 1907 25 NI BB NOT_NAMED 1907-06-16 18:00:00 TS 19.3287 86.7564 main 88 76 _________OP___ -1 19.4000 86.9000 TC 45 19.2573 86.6129 3 5 49
1907164N16085 1907 25 NI BB NOT_NAMED 1907-06-16 21:00:00 TS 19.5173 86.9601 main 84 77 _________PP___ -1 19.5999 87.0926 TC 45 19.4347 86.8276 3 6 46
1907164N16085 1907 25 NI BB NOT_NAMED 1907-06-17 00:00:00 TS 19.7099 87.1768 main 85 76 _________OP___ -1 19.8000 87.3000 TC 45 19.6198 87.0535 3 6 51
1907164N16085 1907 25 NI BB NOT_NAMED 1907-06-17 03:00:00 TS 19.8788 87.4425 main 85 85 _________PO___ -1 19.9575 87.5851 TC 45 19.8000 87.3000 3 6 60
1907164N16085 1907 25 NI BB NOT_NAMED 1907-06-17 06:00:00 TS 20.0186 87.7555 main 114 107 _________OP___ -1 20.1000 87.9000 TC 45 19.9372 87.6110 3 7 65
1907164N16085 1907 25 NI BB NOT_NAMED 1907-06-17 09:00:00 TS 20.1528 88.0801 main 127 127 _________PP___ -1 20.2350 88.2225 TC 45 20.0705 87.9376 3 6 63
1907164N16085 1907 25 NI BB NOT_NAMED 1907-06-17 12:00:00 TS 20.3092 88.3727 main 145 123 _________OP___ -1 20.4000 88.5000 TC 45 20.2185 88.2453 3 6 53
1907164N16085 1907 25 NI BB NOT_NAMED 1907-06-17 15:00:00 TS 20.5137 88.5938 main 123 91 _________PO___ -1 20.6274 88.6875 TC 45 20.4000 88.5000 3 6 37
1907164N16085 1907 25 NI BB NOT_NAMED 1907-06-17 18:00:00 TS 20.7714 88.7489 main 91 67 _________OP___ -1 20.9000 88.8000 TC 45 20.6428 88.6979 3 6 25
1907164N16085 1907 25 NI BB NOT_NAMED 1907-06-17 21:00:00 TS 21.0560 88.8610 main 55 33 _________PP___ -1 21.1925 88.8875 TC 45 20.9196 88.8346 3 6 14
1907164N16085 1907 25 NI BB NOT_NAMED 1907-06-18 00:00:00 TS 21.3558 88.9020 main 22 0 _________OP___ -1 21.5000 88.9000 TC 45 21.2116 88.9040 3 6 0
1907164N16085 1907 25 NI BB NOT_NAMED 1907-06-18 03:00:00 TS 21.6575 88.8688 main 0 0 _________PO___ -1 21.8150 88.8376 TC 41 21.5000 88.9000 3 6 348
1907164N16085 1907 25 NI BB NOT_NAMED 1907-06-18 06:00:00 TS 21.9346 88.7713 main 0 0 _________OP___ -1 22.1000 88.7000 TC 37 21.7693 88.8425 3 6 336
1907164N16085 1907 25 NI BB NOT_NAMED 1907-06-18 09:00:00 TS 22.1724 88.6177 main 0 0 _________PP___ -1 22.3150 88.5224 TC 33 22.0298 88.7129 3 6 324
1907164N16085 1907 25 NI BB NOT_NAMED 1907-06-18 12:00:00 TS 22.3877 88.4134 main 0 0 _________OP___ -1 22.5000 88.3000 TC 30 22.2755 88.5268 3 6 317
1907164N16085 1907 25 NI BB NOT_NAMED 1907-06-18 15:00:00 TS 22.6037 88.1825 main 0 0 _________PO___ -1 22.7075 88.0650 TC 30 22.5000 88.3000 1 6 313
1907164N16085 1907 25 NI BB NOT_NAMED 1907-06-18 18:00:00 TS 22.8045 87.9245 main 0 0 _________OP___ -1 22.9000 87.8000 TC 30 22.7090 88.0489 1 6 306
1907164N16085 1907 25 NI BB NOT_NAMED 1907-06-18 21:00:00 TS 22.9802 87.6289 main 0 0 _________PP___ -1 23.0651 87.4925 TC 30 22.8953 87.7652 1 6 301
1907164N16085 1907 25 NI BB NOT_NAMED 1907-06-19 00:00:00 TS 23.1295 87.3370 main 0 0 _________OP___ -1 23.2000 87.2000 TC 30 23.0590 87.4739 1 6 299
1907164N16085 1907 25 NI BB NOT_NAMED 1907-06-19 03:00:00 TS 23.2537 87.0924 main 0 0 _________PO___ -1 23.3074 86.9849 TC 30 23.2000 87.2000 1 5 300
1907164N16085 1907 25 NI BB NOT_NAMED 1907-06-19 06:00:00 TS 23.3648 86.8850 main 0 0 _________OP___ -1 23.4000 86.8000 TC 30 23.3295 86.9701 1 4 300
1907164N16085 1907 25 NI BB NOT_NAMED 1907-06-19 09:00:00 TS 23.4724 86.6774 main 0 0 _________PP___ -1 23.5075 86.5925 TC 30 23.4373 86.7622 1 4 299
1907164N16085 1907 25 NI BB NOT_NAMED 1907-06-19 12:00:00 TS 23.5632 86.4866 main 0 0 _________OP___ -1 23.6000 86.4000 TC 30 23.5264 86.5733 1 4 296
1907164N16085 1907 25 NI BB NOT_NAMED 1907-06-19 15:00:00 TS 23.6287 86.3212 main 0 0 _________PO___ -1 23.6575 86.2424 TC 30 23.6000 86.4000 1 3 292
1907164N16085 1907 25 NI BB NOT_NAMED 1907-06-19 18:00:00 TS 23.6777 86.1795 main 0 0 _________OP___ -1 23.7000 86.1000 TC 30 23.6610 86.2392 1 3 290
1907164N16085 1907 25 NI BB NOT_NAMED 1907-06-19 21:00:00 TS 23.7266 86.0336 main 0 0 _________PP___ -1 23.7475 85.9525 TC 30 23.7126 86.0876 1 3 290
1907164N16085 1907 25 NI BB NOT_NAMED 1907-06-20 00:00:00 TS 23.7719 85.8949 main 0 0 _________OP___ -1 23.8000 85.8000 TC 30 23.7579 85.9423 1 2 289
1907164N16085 1907 25 NI BB NOT_NAMED 1907-06-20 03:00:00 NR 23.8000 85.8000 main 0 __________O___ -1 TC 23.8000 85.8000 1 2 287

About IBTrACS Database

This database is a web-friendly format of International Best Track Archive for Climate Stewardship (IBTrACS), a global best track data archive curated by NOAA dating back to 1842.

Updated: 2021-10-08